createdAt,value
2018-07-10T00:02:14.213Z,2.97
2018-07-10T00:07:01.510Z,3.17
2018-07-10T00:11:47.637Z,2.83
2018-07-10T00:14:15.957Z,3.20
2018-07-10T00:16:44.279Z,3.40
2018-07-10T00:19:12.689Z,3.50
2018-07-10T00:21:41.077Z,3.13
2018-07-10T00:24:09.421Z,3.30
2018-07-10T00:26:37.752Z,3.43
2018-07-10T00:29:06.141Z,3.63
2018-07-10T00:31:34.424Z,3.60
2018-07-10T00:34:02.780Z,3.37
2018-07-10T00:36:31.141Z,4.00
2018-07-10T00:39:08.612Z,3.80
2018-07-10T00:41:38.014Z,3.70
2018-07-10T00:44:06.958Z,3.60
2018-07-10T00:46:36.700Z,4.03
2018-07-10T00:49:05.166Z,4.13
2018-07-10T00:51:36.625Z,3.93
2018-07-10T00:54:04.972Z,3.97
2018-07-10T00:56:33.349Z,3.70
2018-07-10T00:59:03.333Z,4.37
2018-07-10T01:01:32.448Z,4.00
2018-07-10T01:04:00.949Z,4.30
2018-07-10T01:06:29.328Z,4.03
2018-07-10T01:08:57.663Z,3.97
2018-07-10T01:11:25.977Z,4.10
2018-07-10T01:13:54.428Z,4.20
2018-07-10T01:16:37.609Z,3.67
2018-07-10T01:19:13.911Z,4.00
2018-07-10T01:21:42.869Z,3.97
2018-07-10T01:24:11.224Z,4.50
2018-07-10T01:26:40.479Z,4.17
2018-07-10T01:29:19.522Z,3.43
2018-07-10T01:31:49.505Z,3.60
2018-07-10T01:34:17.849Z,4.00
2018-07-10T01:36:46.185Z,3.90
2018-07-10T01:39:14.603Z,3.90
2018-07-10T01:41:43.360Z,3.80
2018-07-10T01:44:11.768Z,3.70
2018-07-10T01:46:40.113Z,3.90
2018-07-10T01:49:08.564Z,4.03
2018-07-10T01:51:36.924Z,3.43
2018-07-10T01:54:05.286Z,4.30
2018-07-10T01:56:34.658Z,4.03
2018-07-10T01:59:03.068Z,3.70
2018-07-10T02:01:31.381Z,3.90
2018-07-10T02:04:00.799Z,3.97
2018-07-10T02:06:29.448Z,4.27
2018-07-10T02:08:58.269Z,4.57
2018-07-10T02:11:26.629Z,4.10
2018-07-10T02:13:55.037Z,3.80
2018-07-10T02:16:23.345Z,4.03
2018-07-10T02:18:51.796Z,3.87
2018-07-10T02:21:20.216Z,4.20
2018-07-10T02:23:48.636Z,4.30
2018-07-10T02:26:24.015Z,4.10
2018-07-10T02:28:53.185Z,4.37
2018-07-10T02:31:21.571Z,4.00
2018-07-10T02:33:50.448Z,4.87
2018-07-10T02:36:19.205Z,4.20
2018-07-10T02:38:49.189Z,4.57
2018-07-10T02:41:19.768Z,4.40
2018-07-10T02:43:58.009Z,4.20
2018-07-10T02:46:27.453Z,4.20
2018-07-10T02:49:15.937Z,4.80
2018-07-10T02:51:53.166Z,4.97
2018-07-10T02:54:24.373Z,5.33
2018-07-10T02:56:53.482Z,4.97
2018-07-10T02:59:21.892Z,4.53
2018-07-10T03:01:50.237Z,4.50
2018-07-10T03:04:19.644Z,4.70
2018-07-10T03:06:47.973Z,4.60
2018-07-10T03:09:16.429Z,5.13
2018-07-10T03:11:44.765Z,5.30
2018-07-10T03:14:13.120Z,5.33
2018-07-10T03:16:41.478Z,5.10
2018-07-10T03:19:10.709Z,5.30
2018-07-10T03:21:39.177Z,5.60
2018-07-10T03:24:07.848Z,5.13
2018-07-10T03:26:36.279Z,5.97
2018-07-10T03:29:04.614Z,6.00
2018-07-10T03:31:33.145Z,5.63
2018-07-10T03:34:10.025Z,5.63
2018-07-10T03:36:38.374Z,5.37
2018-07-10T03:39:06.667Z,5.63
2018-07-10T03:41:35.425Z,5.30
2018-07-10T03:44:03.773Z,5.30
2018-07-10T03:46:32.116Z,5.83
2018-07-10T03:49:00.645Z,5.60
2018-07-10T03:51:30.354Z,6.27
2018-07-10T03:53:59.079Z,5.80
2018-07-10T03:56:27.437Z,6.40
2018-07-10T03:58:57.285Z,6.03
2018-07-10T04:01:26.644Z,6.63
2018-07-10T04:03:54.988Z,6.20
2018-07-10T04:06:23.570Z,5.93
2018-07-10T04:08:51.932Z,6.53
2018-07-10T04:11:20.309Z,6.10
2018-07-10T04:13:48.691Z,5.77
2018-07-10T04:16:17.065Z,6.43
2018-07-10T04:18:45.403Z,6.10
2018-07-10T04:21:29.353Z,6.00
2018-07-10T04:24:06.281Z,6.07
2018-07-10T04:26:37.449Z,5.90
2018-07-10T04:29:16.445Z,6.33
2018-07-10T04:31:53.625Z,5.90
2018-07-10T04:34:22.039Z,6.30
2018-07-10T04:36:50.979Z,6.87
2018-07-10T04:39:19.408Z,5.47
2018-07-10T04:41:53.780Z,6.07
2018-07-10T04:44:24.910Z,6.27
2018-07-10T04:46:57.503Z,5.90
2018-07-10T04:49:37.053Z,5.60
2018-07-10T04:52:29.138Z,6.03
2018-07-10T04:55:03.233Z,6.83
2018-07-10T04:57:33.386Z,6.00
2018-07-10T05:00:04.155Z,6.20
2018-07-10T05:02:33.437Z,5.90
2018-07-10T05:05:01.799Z,6.87
2018-07-10T05:07:30.289Z,6.30
2018-07-10T05:09:58.633Z,6.27
2018-07-10T05:12:26.992Z,6.43
2018-07-10T05:14:56.597Z,6.43
2018-07-10T05:17:24.953Z,6.50
2018-07-10T05:19:54.298Z,6.87
2018-07-10T05:22:22.718Z,10.10
2018-07-10T05:24:51.715Z,9.93
2018-07-10T05:27:20.222Z,7.43
2018-07-10T05:29:48.695Z,7.07
2018-07-10T05:32:17.101Z,8.07
2018-07-10T05:34:45.439Z,7.27
2018-07-10T05:37:19.199Z,7.47
2018-07-10T05:39:47.483Z,6.17
2018-07-10T05:42:15.905Z,5.57
2018-07-10T05:44:45.944Z,5.90
2018-07-10T05:47:14.373Z,5.00
2018-07-10T05:49:42.801Z,5.37
2018-07-10T05:52:12.821Z,4.73
2018-07-10T05:54:42.892Z,5.50
2018-07-10T05:57:11.244Z,5.17
2018-07-10T05:59:39.577Z,4.77
2018-07-10T06:02:07.952Z,4.80
2018-07-10T06:04:38.497Z,4.60
2018-07-10T06:07:06.949Z,4.60
2018-07-10T06:09:35.280Z,4.20
2018-07-10T06:12:03.644Z,4.63
2018-07-10T06:14:31.965Z,4.40
2018-07-10T06:17:00.346Z,4.50
2018-07-10T06:19:28.707Z,4.20
2018-07-10T06:21:57.169Z,5.10
2018-07-10T06:24:27.924Z,5.73
2018-07-10T06:26:59.364Z,5.63
2018-07-10T06:29:30.265Z,5.77
2018-07-10T06:32:00.366Z,5.97
2018-07-10T06:34:35.099Z,6.10
2018-07-10T06:37:07.012Z,7.23
2018-07-10T06:39:35.301Z,7.13
2018-07-10T06:42:07.348Z,7.10
2018-07-10T06:44:35.873Z,6.67
2018-07-10T06:47:09.521Z,7.13
2018-07-10T06:49:37.909Z,6.47
2018-07-10T06:52:10.385Z,6.13
2018-07-10T06:55:14.072Z,5.50
2018-07-10T06:57:52.635Z,5.53
2018-07-10T07:00:20.977Z,6.07
2018-07-10T07:02:49.380Z,5.23
2018-07-10T07:05:17.674Z,5.87
2018-07-10T07:07:46.077Z,5.80
2018-07-10T07:10:15.201Z,6.00
2018-07-10T07:12:44.425Z,6.43
2018-07-10T07:15:21.052Z,6.00
2018-07-10T07:17:51.816Z,6.43
2018-07-10T07:20:20.817Z,6.00
2018-07-10T07:22:50.803Z,6.70
2018-07-10T07:25:19.145Z,5.97
2018-07-10T07:27:47.540Z,5.90
2018-07-10T07:30:15.887Z,6.10
2018-07-10T07:32:44.230Z,6.00
2018-07-10T07:35:12.598Z,5.03
2018-07-10T07:37:41.917Z,5.00
2018-07-10T07:40:10.761Z,5.70
2018-07-10T07:42:39.701Z,5.13
2018-07-10T07:45:08.284Z,6.43
2018-07-10T07:47:36.648Z,6.00
2018-07-10T07:50:04.976Z,4.70
2018-07-10T07:52:33.455Z,4.60
2018-07-10T07:55:03.160Z,3.87
2018-07-10T07:57:31.497Z,3.77
2018-07-10T07:59:59.834Z,4.00
2018-07-10T08:02:28.234Z,3.87
2018-07-10T08:04:56.596Z,3.40
2018-07-10T08:07:25.660Z,3.57
2018-07-10T08:09:55.360Z,2.97
2018-07-10T08:12:24.911Z,3.53
2018-07-10T08:14:53.853Z,2.90
2018-07-10T08:17:22.473Z,3.00
2018-07-10T08:19:50.829Z,3.10
2018-07-10T08:22:19.433Z,2.73
2018-07-10T08:24:47.799Z,2.97
2018-07-10T08:27:16.164Z,2.93
2018-07-10T08:29:44.545Z,2.83
2018-07-10T08:32:12.904Z,2.57
2018-07-10T08:34:41.545Z,2.67
2018-07-10T08:37:09.849Z,2.43
2018-07-10T08:39:38.257Z,2.73
2018-07-10T08:42:06.913Z,2.43
2018-07-10T08:44:35.385Z,3.10
2018-07-10T08:47:04.300Z,2.73
2018-07-10T08:49:33.864Z,2.60
2018-07-10T08:52:02.539Z,2.83
2018-07-10T08:54:30.931Z,2.40
2018-07-10T08:56:59.287Z,2.57
2018-07-10T08:59:28.084Z,2.60
2018-07-10T09:01:56.420Z,2.70
2018-07-10T09:04:24.982Z,2.20
2018-07-10T09:06:53.383Z,2.17
2018-07-10T09:09:21.731Z,2.30
2018-07-10T09:11:50.236Z,2.50
2018-07-10T09:14:18.628Z,2.77
2018-07-10T09:16:47.022Z,1.83
2018-07-10T09:19:17.688Z,1.80
2018-07-10T09:21:51.375Z,1.70
2018-07-10T09:24:19.767Z,2.20
2018-07-10T09:26:50.298Z,2.17
2018-07-10T09:29:18.844Z,2.03
2018-07-10T09:31:47.277Z,2.00
2018-07-10T09:34:16.373Z,1.77
2018-07-10T09:36:44.819Z,2.00
2018-07-10T09:39:13.165Z,1.90
2018-07-10T09:41:41.609Z,1.60
2018-07-10T09:44:11.409Z,1.57
2018-07-10T09:46:39.876Z,1.70
2018-07-10T09:49:08.296Z,1.73
2018-07-10T09:51:36.673Z,1.93
2018-07-10T09:54:05.158Z,1.63
2018-07-10T09:56:33.516Z,1.97
2018-07-10T09:59:01.849Z,1.83
2018-07-10T10:01:33.482Z,1.73
2018-07-10T10:04:02.765Z,1.63
2018-07-10T10:06:31.153Z,1.50
2018-07-10T10:08:59.472Z,1.90
2018-07-10T10:11:27.836Z,2.03
2018-07-10T10:13:56.172Z,1.53
2018-07-10T10:16:24.556Z,1.50
2018-07-10T10:18:55.131Z,2.00
2018-07-10T10:21:23.538Z,2.00
2018-07-10T10:23:52.136Z,1.87
2018-07-10T10:26:21.226Z,6.90
2018-07-10T10:28:49.932Z,2.80
2018-07-10T10:31:18.322Z,2.27
2018-07-10T10:33:46.649Z,2.60
2018-07-10T10:36:15.004Z,2.70
2018-07-10T10:38:45.029Z,2.40
2018-07-10T10:41:15.205Z,2.00
2018-07-10T10:43:43.725Z,2.30
2018-07-10T10:46:12.083Z,2.20
2018-07-10T10:48:40.441Z,2.10
2018-07-10T10:51:08.817Z,1.83
2018-07-10T10:53:37.719Z,2.30
2018-07-10T10:56:06.093Z,1.80
2018-07-10T10:58:34.445Z,2.13
2018-07-10T11:01:02.992Z,1.80
2018-07-10T11:03:31.320Z,2.00
2018-07-10T11:05:59.664Z,1.60
2018-07-10T11:08:28.097Z,1.40
2018-07-10T11:10:56.468Z,1.50
2018-07-10T11:13:24.919Z,1.40
2018-07-10T11:15:53.289Z,1.30
2018-07-10T11:18:45.840Z,1.40
2018-07-10T11:21:26.901Z,1.53
2018-07-10T11:23:56.541Z,1.13
2018-07-10T11:26:26.861Z,1.40
2018-07-10T11:28:55.644Z,1.17
2018-07-10T11:31:23.999Z,1.20
2018-07-10T11:33:52.372Z,1.20
2018-07-10T11:36:20.852Z,1.27
2018-07-10T11:38:49.740Z,1.60
2018-07-10T11:41:18.201Z,1.33
2018-07-10T11:43:46.649Z,1.50
2018-07-10T11:46:15.018Z,1.53
2018-07-10T11:48:43.401Z,1.77
2018-07-10T11:51:11.777Z,1.50
2018-07-10T11:53:40.668Z,1.30
2018-07-10T11:56:09.077Z,1.60
2018-07-10T11:58:37.405Z,1.90
2018-07-10T12:01:05.788Z,1.40
2018-07-10T12:03:39.622Z,1.50
2018-07-10T12:06:08.800Z,1.50
2018-07-10T12:08:37.140Z,1.80
2018-07-10T12:11:13.224Z,1.73
2018-07-10T12:13:41.838Z,1.53
2018-07-10T12:16:10.268Z,1.50
2018-07-10T12:18:38.584Z,1.87
2018-07-10T12:21:08.013Z,1.70
2018-07-10T12:23:36.376Z,1.60
2018-07-10T12:26:06.188Z,1.80
2018-07-10T12:28:34.561Z,1.90
2018-07-10T12:31:03.446Z,1.80
2018-07-10T12:33:31.823Z,1.70
2018-07-10T12:36:00.406Z,1.80
2018-07-10T12:38:28.821Z,1.90
2018-07-10T12:40:57.225Z,1.80
2018-07-10T12:43:25.860Z,1.80
2018-07-10T12:45:54.225Z,1.83
2018-07-10T12:48:22.549Z,1.50
2018-07-10T12:50:50.883Z,1.47
2018-07-10T12:53:19.240Z,1.40
2018-07-10T12:55:47.565Z,1.43
2018-07-10T12:58:17.405Z,1.30
2018-07-10T13:00:45.761Z,1.33
2018-07-10T13:03:15.515Z,1.43
2018-07-10T13:05:47.111Z,1.27
2018-07-10T13:08:16.733Z,1.60
2018-07-10T13:10:45.464Z,1.50
2018-07-10T13:13:14.073Z,1.50
2018-07-10T13:15:42.427Z,1.60
2018-07-10T13:18:10.836Z,1.70
2018-07-10T13:20:39.216Z,1.50
2018-07-10T13:23:07.613Z,1.60
2018-07-10T13:25:35.920Z,1.50
2018-07-10T13:28:04.545Z,1.50
2018-07-10T13:30:32.878Z,1.53
2018-07-10T13:33:01.224Z,1.47
2018-07-10T13:35:29.589Z,1.50
2018-07-10T13:37:58.027Z,1.50
2018-07-10T13:40:27.018Z,1.40
2018-07-10T13:42:57.357Z,1.40
2018-07-10T13:45:26.872Z,1.37
2018-07-10T13:47:55.244Z,1.30
2018-07-10T13:50:25.534Z,1.40
2018-07-10T13:52:54.684Z,1.43
2018-07-10T13:55:23.016Z,1.10
2018-07-10T13:58:26.713Z,1.23
2018-07-10T14:01:03.077Z,1.60
2018-07-10T14:03:31.417Z,1.30
2018-07-10T14:05:59.856Z,1.60
2018-07-10T14:08:28.507Z,1.57
2018-07-10T14:10:56.832Z,1.53
2018-07-10T14:13:25.174Z,1.50
2018-07-10T14:15:53.524Z,1.53
2018-07-10T14:18:23.174Z,1.60
2018-07-10T14:20:54.041Z,1.30
2018-07-10T14:23:22.645Z,1.60
2018-07-10T14:25:51.632Z,1.40
2018-07-10T14:28:20.359Z,1.43
2018-07-10T14:30:48.652Z,1.50
2018-07-10T14:33:16.985Z,1.33
2018-07-10T14:35:45.350Z,1.40
2018-07-10T14:38:16.176Z,1.40
2018-07-10T14:40:46.949Z,1.43
2018-07-10T14:43:26.324Z,1.33
2018-07-10T14:45:57.213Z,1.43
2018-07-10T14:48:28.473Z,1.47
2018-07-10T14:50:57.321Z,1.33
2018-07-10T14:53:25.784Z,1.70
2018-07-10T14:55:54.188Z,1.93
2018-07-10T14:58:22.521Z,1.53
2018-07-10T15:00:51.338Z,1.60
2018-07-10T15:03:19.668Z,1.80
2018-07-10T15:05:47.700Z,1.30
2018-07-10T15:08:16.053Z,1.80
2018-07-10T15:10:44.418Z,1.50
2018-07-10T15:13:12.761Z,1.73
2018-07-10T15:15:41.097Z,1.70
2018-07-10T15:18:15.699Z,1.70
2018-07-10T15:20:44.066Z,1.93
2018-07-10T15:23:12.433Z,1.93
2018-07-10T15:25:40.717Z,1.63
2018-07-10T15:28:09.081Z,1.73
2018-07-10T15:30:37.118Z,1.60
2018-07-10T15:33:06.329Z,1.83
2018-07-10T15:35:34.672Z,1.97
2018-07-10T15:38:03.009Z,1.63
2018-07-10T15:40:31.405Z,1.70
2018-07-10T15:42:59.713Z,1.60
2018-07-10T15:45:28.029Z,1.57
2018-07-10T15:47:56.347Z,1.60
2018-07-10T15:50:24.676Z,1.87
2018-07-10T15:52:53.122Z,1.70
2018-07-10T15:55:21.471Z,1.60
2018-07-10T15:57:49.865Z,1.77
2018-07-10T16:00:19.244Z,1.70
2018-07-10T16:02:47.573Z,1.43
2018-07-10T16:05:15.917Z,2.17
2018-07-10T16:07:44.255Z,1.93
2018-07-10T16:10:12.844Z,1.50
2018-07-10T16:12:41.177Z,1.47
2018-07-10T16:15:09.530Z,1.43
2018-07-10T16:17:37.869Z,1.37
2018-07-10T16:20:08.452Z,1.60
2018-07-10T16:22:37.500Z,1.10
2018-07-10T16:25:07.701Z,1.30
2018-07-10T16:27:42.371Z,1.40
2018-07-10T16:30:12.237Z,1.10
2018-07-10T16:32:41.788Z,1.20
2018-07-10T16:35:10.805Z,1.10
2018-07-10T16:37:39.132Z,1.10
2018-07-10T16:40:08.580Z,0.83
2018-07-10T16:42:42.403Z,0.90
2018-07-10T16:45:15.273Z,0.70
2018-07-10T16:47:49.204Z,0.80
2018-07-10T16:50:19.721Z,0.80
2018-07-10T16:52:58.124Z,0.90
2018-07-10T16:55:27.429Z,0.80
2018-07-10T16:57:55.876Z,0.80
2018-07-10T17:00:24.592Z,0.90
2018-07-10T17:02:54.380Z,0.90
2018-07-10T17:05:23.182Z,0.87
2018-07-10T17:07:51.520Z,0.83
2018-07-10T17:10:19.880Z,0.70
2018-07-10T17:12:48.556Z,0.80
2018-07-10T17:15:16.991Z,0.90
2018-07-10T17:17:45.244Z,0.80
2018-07-10T17:20:14.586Z,1.00
2018-07-10T17:22:43.657Z,0.90
2018-07-10T17:25:13.236Z,0.80
2018-07-10T17:27:46.832Z,0.80
2018-07-10T17:30:15.192Z,0.90
2018-07-10T17:32:43.520Z,0.77
2018-07-10T17:35:11.848Z,1.00
2018-07-10T17:37:42.762Z,0.90
2018-07-10T17:40:11.085Z,0.80
2018-07-10T17:42:39.579Z,0.90
2018-07-10T17:45:10.372Z,0.80
2018-07-10T17:47:38.767Z,0.90
2018-07-10T17:50:07.244Z,0.90
2018-07-10T17:52:35.780Z,0.80
2018-07-10T17:55:06.132Z,0.83
2018-07-10T17:57:35.224Z,0.83
2018-07-10T18:00:05.000Z,1.00
2018-07-10T18:02:33.709Z,0.80
2018-07-10T18:05:02.172Z,0.83
2018-07-10T18:07:30.627Z,0.90
2018-07-10T18:09:59.017Z,0.90
2018-07-10T18:12:27.456Z,1.13
2018-07-10T18:14:55.817Z,1.00
2018-07-10T18:17:24.165Z,0.90
2018-07-10T18:19:52.896Z,1.07
2018-07-10T18:22:21.329Z,1.20
2018-07-10T18:24:49.917Z,1.00
2018-07-10T18:27:18.336Z,1.20
2018-07-10T18:29:46.777Z,1.10
2018-07-10T18:32:15.182Z,1.10
2018-07-10T18:34:43.526Z,1.10
2018-07-10T18:37:11.921Z,1.10
2018-07-10T18:39:40.400Z,1.30
2018-07-10T18:42:08.968Z,1.40
2018-07-10T18:44:37.297Z,1.07
2018-07-10T18:47:05.820Z,1.20
2018-07-10T18:49:34.372Z,1.13
2018-07-10T18:52:02.753Z,1.00
2018-07-10T18:54:30.800Z,1.23
2018-07-10T18:56:59.525Z,1.40
2018-07-10T18:59:32.905Z,1.40
2018-07-10T19:02:13.579Z,1.23
2018-07-10T19:04:47.429Z,1.50
2018-07-10T19:07:15.813Z,1.60
2018-07-10T19:09:44.938Z,1.70
2018-07-10T19:12:15.674Z,1.37
2018-07-10T19:14:44.456Z,1.73
2018-07-10T19:17:15.074Z,1.70
2018-07-10T19:19:45.377Z,1.90
2018-07-10T19:22:15.946Z,1.70
2018-07-10T19:24:44.694Z,2.17
2018-07-10T19:27:24.167Z,1.93
2018-07-10T19:29:57.442Z,2.07
2018-07-10T19:32:26.027Z,1.60
2018-07-10T19:34:56.660Z,1.80
2018-07-10T19:37:27.731Z,1.83
2018-07-10T19:39:56.244Z,2.10
2018-07-10T19:42:26.442Z,1.93
2018-07-10T19:44:55.016Z,2.00
2018-07-10T19:47:25.425Z,2.00
2018-07-10T19:49:55.157Z,2.33
2018-07-10T19:52:24.271Z,2.00
2018-07-10T19:54:53.700Z,2.30
2018-07-10T19:57:35.142Z,2.10
2018-07-10T20:00:05.193Z,2.07
2018-07-10T20:02:33.742Z,2.20
2018-07-10T20:05:05.230Z,2.20
2018-07-10T20:07:37.787Z,2.40
2018-07-10T20:10:21.477Z,2.47
2018-07-10T20:13:03.756Z,2.40
2018-07-10T20:15:49.428Z,2.70
2018-07-10T20:18:28.593Z,2.77
2018-07-10T20:21:08.037Z,2.53
2018-07-10T20:23:45.184Z,2.60
2018-07-10T20:26:28.678Z,3.10
2018-07-10T20:29:09.240Z,2.73
2018-07-10T20:31:42.869Z,3.10
2018-07-10T20:34:20.501Z,3.03
2018-07-10T20:36:54.054Z,2.90
2018-07-10T20:39:35.377Z,3.17
2018-07-10T20:42:04.049Z,2.90
2018-07-10T20:44:37.487Z,3.10
2018-07-10T20:47:05.853Z,2.80
2018-07-10T20:49:46.352Z,3.20
2018-07-10T20:52:18.474Z,3.20
2018-07-10T20:54:54.027Z,3.13
2018-07-10T20:57:24.743Z,3.27
2018-07-10T21:00:26.739Z,3.40
2018-07-10T21:04:06.016Z,3.63
2018-07-10T21:06:48.892Z,4.03
2018-07-10T21:09:19.192Z,3.77
2018-07-10T21:12:57.481Z,3.70
2018-07-10T21:15:49.516Z,4.00
2018-07-10T21:18:27.269Z,3.70
2018-07-10T21:21:29.104Z,3.93
2018-07-10T21:24:05.100Z,3.90
2018-07-10T21:26:38.480Z,4.60
2018-07-10T21:29:17.197Z,4.10
2018-07-10T21:31:54.209Z,3.97
2018-07-10T21:34:27.576Z,4.50
2018-07-10T21:37:03.070Z,4.33
2018-07-10T21:40:09.005Z,4.30
2018-07-10T21:42:48.678Z,4.00
2018-07-10T21:45:25.409Z,4.23
2018-07-10T21:48:04.130Z,4.23
2018-07-10T21:50:37.138Z,4.60
2018-07-10T21:53:05.549Z,4.30
2018-07-10T21:55:33.970Z,4.47
2018-07-10T21:58:02.304Z,4.20
2018-07-10T22:00:50.245Z,4.57
2018-07-10T22:03:18.602Z,5.20
2018-07-10T22:05:47.303Z,4.70
2018-07-10T22:08:15.685Z,4.70
2018-07-10T22:10:44.045Z,5.53
2018-07-10T22:13:12.397Z,4.03
2018-07-10T22:15:40.822Z,4.40
2018-07-10T22:18:09.224Z,5.27
2018-07-10T22:20:37.596Z,5.50
2018-07-10T22:23:06.236Z,5.10
2018-07-10T22:25:34.604Z,5.20
2018-07-10T22:28:02.944Z,5.07
2018-07-10T22:30:36.558Z,4.97
2018-07-10T22:33:04.961Z,4.07
2018-07-10T22:35:33.348Z,4.70
2018-07-10T22:38:01.697Z,4.87
2018-07-10T22:40:30.085Z,5.23
2018-07-10T22:42:58.412Z,3.97
2018-07-10T22:45:28.104Z,5.63
2018-07-10T22:47:56.428Z,4.87
2018-07-10T22:50:25.640Z,4.37
2018-07-10T22:52:57.704Z,5.70
2018-07-10T22:55:27.791Z,5.70
2018-07-10T22:58:02.916Z,6.00
2018-07-10T23:00:35.010Z,5.30
2018-07-10T23:03:21.853Z,5.07
2018-07-10T23:05:51.095Z,5.87
2018-07-10T23:08:24.955Z,5.73
2018-07-10T23:10:53.345Z,5.70
2018-07-10T23:13:21.688Z,6.20
2018-07-10T23:15:50.647Z,5.67
2018-07-10T23:18:19.616Z,6.27
2018-07-10T23:20:48.070Z,6.30
2018-07-10T23:23:16.524Z,6.37
2018-07-10T23:25:45.349Z,7.10
2018-07-10T23:28:13.680Z,7.00
2018-07-10T23:30:43.830Z,6.10
2018-07-10T23:33:14.629Z,7.10
2018-07-10T23:35:45.268Z,6.57
2018-07-10T23:39:21.697Z,7.00
2018-07-10T23:42:04.642Z,6.83
2018-07-10T23:44:36.504Z,6.67
2018-07-10T23:47:07.501Z,6.93
2018-07-10T23:49:35.909Z,6.93
2018-07-10T23:52:16.143Z,6.80
2018-07-10T23:54:44.437Z,6.73
2018-07-10T23:57:12.799Z,6.50
2018-07-10T23:59:41.165Z,6.47
